Priwall — V2OX8 — position and weather

sailwx.info

Track history (hours):
 
Tides and Currents Weather Stations Pressure Air Temp Water Temp Dewpoint Dewpoint Depression Visibility Wind Speed Wind Dir Waves Ship Positions

Priwall

Last reported at 2016-Feb-13 17:32 UTC. Time now 2016-Feb-14 14:40 UTC.
Position N 33°21' E 030°03'.

Length 88 m; draft 3.3 m.

Type: Ship. MMSI: 304739000.

Date/timePositionNaut miles runAvg speedWind from/ knotsBaromVisibWave heightAir tempDewpointWater temp
2016-Feb-13 17:32N 33°21' E 030°03'319 9.4
2016-Feb-12 07:31N 37°28' E 025°56'245 7.2
2016-Feb-10 21:31N 40°44' E 029°05'9 8.8
2016-Feb-10 20:33N 40°45' E 029°16'10 9.3
2016-Feb-10 19:27N 40°45' E 029°29'  
2016-Feb-06 12:27N 43°52' E 028°49'8 8.9
2016-Feb-06 11:33N 43°60' E 028°47'8 7.7
2016-Feb-06 10:33N 44°06' E 028°41'1 0.6
2016-Feb-06 09:29N 44°06' E 028°40'0 0.0
2016-Feb-06 08:29N 44°06' E 028°40'0 0.0
2016-Feb-06 07:29N 44°06' E 028°40'0 0.0
2016-Feb-06 06:29N 44°06' E 028°40'0 0.0
2016-Feb-06 05:32N 44°06' E 028°40'0 0.0
2016-Feb-06 04:32N 44°06' E 028°40'0 0.0
2016-Feb-06 03:32N 44°06' E 028°40'0 0.0
2016-Feb-06 02:32N 44°06' E 028°40'0 0.0
2016-Feb-06 01:32N 44°06' E 028°40'0 0.0
2016-Feb-06 00:32N 44°06' E 028°40'0 0.0
2016-Feb-05 23:23N 44°06' E 028°40'0 0.0
2016-Feb-05 22:23N 44°06' E 028°40'0 0.0
2016-Feb-05 21:26N 44°06' E 028°40'0 0.0
2016-Feb-05 20:26N 44°06' E 028°40'0 0.0
2016-Feb-05 19:26N 44°06' E 028°40'0 0.0
2016-Feb-05 18:29N 44°06' E 028°40'0 0.0
2016-Feb-05 17:29N 44°06' E 028°40'0 0.0
2016-Feb-05 16:29N 44°06' E 028°40'0 0.0
2016-Feb-05 15:29N 44°06' E 028°40'0 0.0
2016-Feb-05 14:33N 44°06' E 028°40'4 3.9
2016-Feb-05 13:33N 44°08' E 028°45'2 1.9
2016-Feb-05 12:30N 44°10' E 028°45'0 0.0
2016-Feb-05 11:30N 44°10' E 028°45'0 0.0
2016-Feb-05 10:27N 44°10' E 028°45'0 0.0
2016-Feb-05 09:33N 44°10' E 028°45'0 0.0
2016-Feb-05 08:33N 44°10' E 028°45'0 0.0
2016-Feb-05 07:30N 44°10' E 028°45'0 0.0
2016-Feb-05 06:33N 44°10' E 028°45'0 0.0
2016-Feb-05 05:21N 44°10' E 028°45'0 0.1
2016-Feb-05 04:33N 44°10' E 028°45'0 0.1
2016-Feb-05 03:33N 44°10' E 028°45'0 0.0
2016-Feb-05 02:24N 44°10' E 028°45'0 0.0
2016-Feb-05 01:27N 44°10' E 028°45'0 0.0
2016-Feb-05 00:27N 44°10' E 028°45'0 0.0
2016-Feb-04 23:27N 44°10' E 028°45'0 0.0
2016-Feb-04 22:30N 44°10' E 028°45'0 0.0
2016-Feb-04 21:30N 44°10' E 028°45'0 0.0
2016-Feb-04 20:30N 44°10' E 028°45'0 0.0
2016-Feb-04 19:33N 44°10' E 028°45'0 0.0
2016-Feb-04 18:33N 44°10' E 028°45'1 1.0
2016-Feb-04 17:34N 44°09' E 028°45'4 4.3
2016-Feb-04 16:34N 44°09' E 028°39'0 0.1
2016-Feb-04 15:26N 44°09' E 028°39'0 0.0
2016-Feb-04 14:29N 44°09' E 028°39'0 0.0
2016-Feb-04 13:29N 44°09' E 028°39'0 0.0
2016-Feb-04 12:14N 44°09' E 028°39'0 0.0
2016-Feb-04 11:29N 44°09' E 028°39'0 0.0
2016-Feb-04 10:32N 44°09' E 028°39'0 0.0
2016-Feb-04 09:29N 44°09' E 028°39'0 0.0
2016-Feb-04 08:32N 44°09' E 028°39'0 0.0
2016-Feb-04 07:32N 44°09' E 028°39'0 0.0
2016-Feb-04 06:32N 44°09' E 028°39'0 0.0
2016-Feb-04 05:32N 44°09' E 028°39'0 0.0
2016-Feb-04 04:23N 44°09' E 028°39'0 0.0
2016-Feb-04 03:26N 44°09' E 028°39'0 0.0
2016-Feb-04 02:26N 44°09' E 028°39'0 0.0
2016-Feb-04 01:26N 44°09' E 028°39'0 0.0
2016-Feb-04 00:29N 44°09' E 028°39'0 0.0
2016-Feb-03 23:29N 44°09' E 028°39'0 0.0
2016-Feb-03 22:29N 44°09' E 028°39'0 0.0
2016-Feb-03 21:32N 44°09' E 028°39'0 0.0
2016-Feb-03 20:32N 44°09' E 028°39'0 0.0
2016-Feb-03 19:33N 44°09' E 028°39'5 4.6
2016-Feb-03 18:33N 44°06' E 028°43'  
Track history (hours):
 
Tides and Currents Weather Stations Pressure Air Temp Water Temp Dewpoint Dewpoint Depression Visibility Wind Speed Wind Dir Waves Ship Positions

Priwall

Last reported at 2016-Feb-13 17:32 UTC. Time now 2016-Feb-14 14:40 UTC.
Position N 33°21' E 030°03'.

Length 88 m; draft 3.3 m.

Type: Ship. MMSI: 304739000.

Date/timePositionNaut miles runAvg speedWind from/ knotsBaromVisibWave heightAir tempDewpointWater temp
2016-Feb-13 17:32N 33°21' E 030°03'319 9.4
2016-Feb-12 07:31N 37°28' E 025°56'245 7.2
2016-Feb-10 21:31N 40°44' E 029°05'9 8.8
2016-Feb-10 20:33N 40°45' E 029°16'10 9.3
2016-Feb-10 19:27N 40°45' E 029°29'  
2016-Feb-06 12:27N 43°52' E 028°49'8 8.9
2016-Feb-06 11:33N 43°60' E 028°47'8 7.7
2016-Feb-06 10:33N 44°06' E 028°41'1 0.6
2016-Feb-06 09:29N 44°06' E 028°40'0 0.0
2016-Feb-06 08:29N 44°06' E 028°40'0 0.0
2016-Feb-06 07:29N 44°06' E 028°40'0 0.0
2016-Feb-06 06:29N 44°06' E 028°40'0 0.0
2016-Feb-06 05:32N 44°06' E 028°40'0 0.0
2016-Feb-06 04:32N 44°06' E 028°40'0 0.0
2016-Feb-06 03:32N 44°06' E 028°40'0 0.0
2016-Feb-06 02:32N 44°06' E 028°40'0 0.0
2016-Feb-06 01:32N 44°06' E 028°40'0 0.0
2016-Feb-06 00:32N 44°06' E 028°40'0 0.0
2016-Feb-05 23:23N 44°06' E 028°40'0 0.0
2016-Feb-05 22:23N 44°06' E 028°40'0 0.0
2016-Feb-05 21:26N 44°06' E 028°40'0 0.0
2016-Feb-05 20:26N 44°06' E 028°40'0 0.0
2016-Feb-05 19:26N 44°06' E 028°40'0 0.0
2016-Feb-05 18:29N 44°06' E 028°40'0 0.0
2016-Feb-05 17:29N 44°06' E 028°40'0 0.0
2016-Feb-05 16:29N 44°06' E 028°40'0 0.0
2016-Feb-05 15:29N 44°06' E 028°40'0 0.0
2016-Feb-05 14:33N 44°06' E 028°40'4 3.9
2016-Feb-05 13:33N 44°08' E 028°45'2 1.9
2016-Feb-05 12:30N 44°10' E 028°45'0 0.0
2016-Feb-05 11:30N 44°10' E 028°45'0 0.0
2016-Feb-05 10:27N 44°10' E 028°45'0 0.0
2016-Feb-05 09:33N 44°10' E 028°45'0 0.0
2016-Feb-05 08:33N 44°10' E 028°45'0 0.0
2016-Feb-05 07:30N 44°10' E 028°45'0 0.0
2016-Feb-05 06:33N 44°10' E 028°45'0 0.0
2016-Feb-05 05:21N 44°10' E 028°45'0 0.1
2016-Feb-05 04:33N 44°10' E 028°45'0 0.1
2016-Feb-05 03:33N 44°10' E 028°45'0 0.0
2016-Feb-05 02:24N 44°10' E 028°45'0 0.0
2016-Feb-05 01:27N 44°10' E 028°45'0 0.0
2016-Feb-05 00:27N 44°10' E 028°45'0 0.0
2016-Feb-04 23:27N 44°10' E 028°45'0 0.0
2016-Feb-04 22:30N 44°10' E 028°45'0 0.0
2016-Feb-04 21:30N 44°10' E 028°45'0 0.0
2016-Feb-04 20:30N 44°10' E 028°45'0 0.0
2016-Feb-04 19:33N 44°10' E 028°45'0 0.0
2016-Feb-04 18:33N 44°10' E 028°45'1 1.0
2016-Feb-04 17:34N 44°09' E 028°45'4 4.3
2016-Feb-04 16:34N 44°09' E 028°39'0 0.1
2016-Feb-04 15:26N 44°09' E 028°39'0 0.0
2016-Feb-04 14:29N 44°09' E 028°39'0 0.0
2016-Feb-04 13:29N 44°09' E 028°39'0 0.0
2016-Feb-04 12:14N 44°09' E 028°39'0 0.0
2016-Feb-04 11:29N 44°09' E 028°39'0 0.0
2016-Feb-04 10:32N 44°09' E 028°39'0 0.0
2016-Feb-04 09:29N 44°09' E 028°39'0 0.0
2016-Feb-04 08:32N 44°09' E 028°39'0 0.0
2016-Feb-04 07:32N 44°09' E 028°39'0 0.0
2016-Feb-04 06:32N 44°09' E 028°39'0 0.0
2016-Feb-04 05:32N 44°09' E 028°39'0 0.0
2016-Feb-04 04:23N 44°09' E 028°39'0 0.0
2016-Feb-04 03:26N 44°09' E 028°39'0 0.0
2016-Feb-04 02:26N 44°09' E 028°39'0 0.0
2016-Feb-04 01:26N 44°09' E 028°39'0 0.0
2016-Feb-04 00:29N 44°09' E 028°39'0 0.0
2016-Feb-03 23:29N 44°09' E 028°39'0 0.0
2016-Feb-03 22:29N 44°09' E 028°39'0 0.0
2016-Feb-03 21:32N 44°09' E 028°39'0 0.0
2016-Feb-03 20:32N 44°09' E 028°39'0 0.0
2016-Feb-03 19:33N 44°09' E 028°39'5 4.6
2016-Feb-03 18:33N 44°06' E 028°43'  

Dump ship's entire track history